Swan Lake, Canada
Current Conditions -  °F | °C
As of 6:15 AM on Monday 24 Nov 2014 (Local Time) from KD55 Reporting Station
Broken Clouds Broken Clouds  
Wind Chill: -22°   Ceiling: 1200
Heat Index:   Visibility: 10mi
Dew Point: -2°   Wind: 18mph
Humidity: 92%   Direction: 330°NNW
Pressure: 29.69"   Gusts: 28mph
Location:  49.4°N, 98.8°W
Report Text: KD55 241215Z AUTO 33016G24KT 10SM SCT001 BKN012 M18/M19 A2969 RMK AO2
Loading
Personal Weather Stations






























Interactive Weather Map New forecast layout! Learn more

10-Day Weather Forecast

Advertisements
Track Severe Weather on mobile